Time;durP1;ratioP1;P1;durP2;ratioP2;P2;SDS_P1;SDS_P2;PMS_P1;PMS_P2;Temp;Humidity;BMP_temperature;BMP_pressure;BME280_temperature;BME280_humidity;BME280_pressure;Samples;Min_cycle;Max_cycle;Signal;HPM_P1;HPM_P2
2022/09/02 00:01:22;;;;;;;6.10;5.60;;;14.20;99.90;;;;;;4987488;28;20448;-87
2022/09/02 00:03:49;;;;;;;6.77;6.17;;;14.10;99.90;;;;;;4972850;28;20197;-87
2022/09/02 00:06:15;;;;;;;6.80;6.20;;;14.00;99.90;;;;;;4988584;28;20566;-87
2022/09/02 00:08:42;;;;;;;6.40;5.83;;;13.90;99.90;;;;;;4978065;28;20499;-87
2022/09/02 00:11:12;;;;;;;6.23;5.80;;;13.90;99.90;;;;;;4968595;28;20481;-87
2022/09/02 00:13:37;;;;;;;6.40;5.80;;;13.90;99.90;;;;;;4967457;28;20447;-87
2022/09/02 00:16:04;;;;;;;6.30;5.80;;;13.90;99.90;;;;;;4972387;28;20440;-87
2022/09/02 00:18:29;;;;;;;6.37;5.87;;;13.90;99.90;;;;;;4977396;28;20184;-87
2022/09/02 00:20:55;;;;;;;6.60;6.10;;;13.90;99.90;;;;;;4979199;28;20445;-88
2022/09/02 00:23:22;;;;;;;6.30;5.80;;;13.80;99.90;;;;;;4984648;28;20187;-88
2022/09/02 00:25:48;;;;;;;6.27;5.87;;;13.80;99.90;;;;;;4978424;28;20196;-88
2022/09/02 00:28:15;;;;;;;5.90;5.50;;;13.80;99.90;;;;;;4973395;28;20440;-88
2022/09/02 00:30:42;;;;;;;6.40;5.90;;;13.80;99.90;;;;;;4972606;28;20484;-88
2022/09/02 00:33:09;;;;;;;6.37;5.87;;;13.70;99.90;;;;;;4971054;28;20456;-88
2022/09/02 00:35:35;;;;;;;6.63;6.23;;;13.70;99.90;;;;;;4970252;28;20532;-88
2022/09/02 00:38:00;;;;;;;6.47;5.87;;;13.70;99.90;;;;;;4979077;28;20428;-88
2022/09/02 00:40:27;;;;;;;7.07;6.47;;;13.60;99.90;;;;;;4965180;28;20561;-87
2022/09/02 00:42:53;;;;;;;6.30;5.70;;;13.60;99.90;;;;;;4977720;28;20227;-88
2022/09/02 00:45:20;;;;;;;6.13;5.63;;;13.50;99.90;;;;;;4980568;28;20449;-88
2022/09/02 00:47:49;;;;;;;7.37;6.77;;;13.50;99.90;;;;;;4964770;28;20959;-87
2022/09/02 00:50:18;;;;;;;5.90;5.30;;;13.40;99.90;;;;;;4982239;28;20483;-87
2022/09/02 00:52:47;;;;;;;5.77;5.37;;;13.40;99.90;;;;;;4982392;28;20529;-87
2022/09/02 00:55:15;;;;;;;6.53;6.00;;;13.50;99.90;;;;;;4976721;28;20480;-87
2022/09/02 00:57:46;;;;;;;7.33;6.67;;;13.60;99.90;;;;;;4979680;28;20440;-87
2022/09/02 01:00:17;;;;;;;6.00;5.40;;;13.50;99.90;;;;;;4977488;28;20483;-87
2022/09/02 01:02:49;;;;;;;6.10;5.60;;;13.60;99.90;;;;;;4974885;28;20441;-87
2022/09/02 01:05:17;;;;;;;5.63;5.23;;;13.60;99.90;;;;;;4986180;28;20450;-88
2022/09/02 01:07:44;;;;;;;5.93;5.53;;;13.70;99.90;;;;;;4977198;28;20945;-87
2022/09/02 01:10:34;;;;;;;6.17;5.77;;;13.60;99.90;;;;;;4969884;28;20479;-87
2022/09/02 01:13:05;;;;;;;6.00;5.40;;;13.60;99.90;;;;;;4969500;28;20436;-87
2022/09/02 01:15:33;;;;;;;5.60;5.20;;;13.70;99.90;;;;;;4974453;28;20818;-87
2022/09/02 01:18:02;;;;;;;6.10;5.70;;;13.70;99.90;;;;;;4966707;28;20491;-88
2022/09/02 01:20:27;;;;;;;6.13;5.70;;;13.70;99.90;;;;;;4978906;28;20490;-87
2022/09/02 01:22:54;;;;;;;5.57;5.17;;;13.70;99.90;;;;;;4993395;28;21971;-87
2022/09/02 01:25:26;;;;;;;6.10;5.70;;;13.70;99.90;;;;;;4969603;28;20181;-87
2022/09/02 01:27:52;;;;;;;6.20;5.70;;;13.70;99.90;;;;;;4990567;28;20452;-87
2022/09/02 01:30:21;;;;;;;6.20;5.70;;;13.70;99.90;;;;;;4974444;28;22087;-86
2022/09/02 01:32:50;;;;;;;6.47;5.70;;;13.70;99.90;;;;;;4971744;28;20442;-87
2022/09/02 01:35:16;;;;;;;6.10;5.70;;;13.70;99.90;;;;;;4968335;28;20444;-87
2022/09/02 01:37:43;;;;;;;6.50;6.07;;;13.70;99.90;;;;;;4972231;28;20924;-87
2022/09/02 01:40:11;;;;;;;5.77;5.37;;;13.60;99.90;;;;;;4975699;28;20447;-87
2022/09/02 01:42:38;;;;;;;6.37;5.87;;;13.50;99.90;;;;;;4978658;28;20439;-87
2022/09/02 01:45:04;;;;;;;5.50;5.10;;;13.60;99.90;;;;;;4974801;28;20498;-87
2022/09/02 01:47:31;;;;;;;5.20;4.80;;;13.50;99.90;;;;;;4973480;28;20471;-87
2022/09/02 01:49:58;;;;;;;5.57;5.17;;;13.40;99.90;;;;;;4975958;28;20950;-88
2022/09/02 01:52:26;;;;;;;5.30;4.93;;;13.40;99.90;;;;;;4986630;28;20424;-88
2022/09/02 01:54:52;;;;;;;6.40;5.90;;;13.40;99.90;;;;;;4973834;28;20440;-88
2022/09/02 01:57:18;;;;;;;5.37;4.97;;;13.40;99.90;;;;;;4978852;28;20941;-88
2022/09/02 01:59:49;;;;;;;6.10;5.50;;;13.40;99.90;;;;;;4973019;28;20682;-87
2022/09/02 02:02:17;;;;;;;5.40;5.00;;;13.40;99.90;;;;;;4990656;28;20950;-87
2022/09/02 02:04:42;;;;;;;5.33;4.83;;;13.60;99.90;;;;;;4979795;28;20432;-88
2022/09/02 02:07:08;;;;;;;4.70;4.30;;;13.60;99.90;;;;;;4972239;28;20506;-88
2022/09/02 02:09:33;;;;;;;5.20;4.80;;;13.60;99.90;;;;;;4971880;28;20210;-88
2022/09/02 02:12:03;;;;;;;4.90;4.50;;;13.60;99.90;;;;;;4974478;28;20193;-88
2022/09/02 02:14:31;;;;;;;5.20;4.87;;;13.70;99.90;;;;;;4965974;28;20485;-87
2022/09/02 02:16:57;;;;;;;5.10;4.70;;;13.50;99.90;;;;;;4964032;28;20527;-88
2022/09/02 02:19:27;;;;;;;5.70;5.13;;;13.40;99.90;;;;;;4973140;28;20443;-88
2022/09/02 02:21:53;;;;;;;4.83;4.53;;;13.50;99.90;;;;;;4977330;28;20444;-88
2022/09/02 02:24:22;;;;;;;5.40;5.00;;;13.40;99.90;;;;;;4977774;28;20448;-88
2022/09/02 02:26:48;;;;;;;4.57;4.27;;;13.40;99.90;;;;;;4970346;28;21716;-88
2022/09/02 02:29:31;;;;;;;4.97;4.53;;;13.40;99.90;;;;;;4971929;28;21051;-88
2022/09/02 02:32:00;;;;;;;4.97;4.67;;;13.30;99.90;;;;;;4959385;28;20776;-88
2022/09/02 02:34:26;;;;;;;5.53;5.13;;;13.30;99.90;;;;;;4970887;28;20443;-88
2022/09/02 02:36:54;;;;;;;4.60;4.30;;;13.20;99.90;;;;;;4969058;28;20463;-88
2022/09/02 02:39:20;;;;;;;4.20;3.90;;;13.20;99.90;;;;;;4966744;28;20870;-87
2022/09/02 02:41:46;;;;;;;5.23;4.83;;;13.30;99.90;;;;;;4965478;28;20200;-88
2022/09/02 02:44:18;;;;;;;4.70;4.40;;;13.30;99.90;;;;;;4979738;28;20189;-87
2022/09/02 02:46:44;;;;;;;4.83;4.40;;;13.20;99.90;;;;;;4971283;28;20467;-87
2022/09/02 02:49:10;;;;;;;4.33;4.03;;;13.30;99.90;;;;;;4974769;28;20185;-88
2022/09/02 02:51:37;;;;;;;4.70;4.30;;;13.30;99.90;;;;;;4986772;28;20193;-87
2022/09/02 02:54:04;;;;;;;5.50;4.80;;;13.30;99.90;;;;;;4983793;28;20942;-88
2022/09/02 02:56:30;;;;;;;4.90;4.50;;;13.30;99.90;;;;;;4979456;28;20435;-87
2022/09/02 02:58:58;;;;;;;5.87;4.60;;;13.20;99.90;;;;;;4971412;28;20946;-88
2022/09/02 03:01:24;;;;;;;4.20;3.93;;;13.20;99.90;;;;;;4986834;28;20580;-88
2022/09/02 03:03:51;;;;;;;4.70;4.30;;;13.10;99.90;;;;;;4971369;28;20797;-87
2022/09/02 03:06:16;;;;;;;4.90;4.60;;;13.10;99.90;;;;;;4975073;28;20543;-87
2022/09/02 03:08:42;;;;;;;4.40;4.10;;;13.00;99.90;;;;;;4971823;28;20436;-87
2022/09/02 03:11:08;;;;;;;4.53;4.10;;;12.90;99.90;;;;;;4970201;28;20289;-87
2022/09/02 03:13:33;;;;;;;4.60;4.30;;;12.90;99.90;;;;;;4973097;28;20178;-87
2022/09/02 03:15:59;;;;;;;5.40;4.50;;;12.80;99.90;;;;;;4974748;28;20985;-87
2022/09/02 03:18:25;;;;;;;6.73;4.50;;;12.70;99.90;;;;;;4970652;28;20196;-86
2022/09/02 03:20:51;;;;;;;8.23;4.40;;;12.60;99.90;;;;;;4975414;28;21027;-87
2022/09/02 03:23:17;;;;;;;4.83;4.43;;;12.60;99.90;;;;;;4984160;28;20546;-87
2022/09/02 03:25:44;;;;;;;9.23;4.40;;;12.60;99.90;;;;;;4977448;28;20276;-87
2022/09/02 03:28:11;;;;;;;5.13;4.30;;;12.60;99.90;;;;;;4975125;28;20502;-87
2022/09/02 03:30:38;;;;;;;4.47;4.07;;;12.60;99.90;;;;;;4970262;28;20507;-87
2022/09/02 03:33:04;;;;;;;5.53;4.13;;;12.50;99.90;;;;;;4970502;28;20559;-87
2022/09/02 03:35:32;;;;;;;5.80;4.50;;;12.50;99.90;;;;;;4965724;28;20454;-86
2022/09/02 03:37:58;;;;;;;4.50;4.10;;;12.50;99.90;;;;;;4969573;28;20437;-87
2022/09/02 03:40:26;;;;;;;4.67;4.37;;;12.30;99.90;;;;;;4968804;28;20445;-87
2022/09/02 03:42:52;;;;;;;4.93;4.60;;;12.30;99.90;;;;;;4981476;28;20572;-87
2022/09/02 03:45:18;;;;;;;4.77;4.30;;;12.20;99.90;;;;;;4974070;28;20445;-87
2022/09/02 03:47:53;;;;;;;4.87;4.57;;;12.20;99.90;;;;;;4975142;28;20472;-87
2022/09/02 03:50:35;;;;;;;4.73;4.33;;;12.20;99.90;;;;;;4972985;28;20497;-87
2022/09/02 03:53:09;;;;;;;4.30;4.03;;;12.30;99.90;;;;;;4985631;28;20427;-87
2022/09/02 03:55:36;;;;;;;5.30;4.80;;;12.40;99.90;;;;;;4976729;28;20443;-87
2022/09/02 03:58:02;;;;;;;5.00;4.20;;;12.40;99.90;;;;;;4968303;28;20447;-87
2022/09/02 04:00:30;;;;;;;4.77;4.37;;;12.30;99.90;;;;;;4981886;28;20428;-85
2022/09/02 04:02:56;;;;;;;4.00;3.70;;;12.30;99.90;;;;;;4964870;28;20440;-87
2022/09/02 04:05:23;;;;;;;4.87;4.47;;;12.20;99.90;;;;;;4984932;28;20754;-87
2022/09/02 04:07:50;;;;;;;4.87;4.33;;;12.10;99.90;;;;;;4973288;28;20456;-87
2022/09/02 04:10:16;;;;;;;5.40;4.90;;;12.00;99.90;;;;;;4967392;28;20490;-87
2022/09/02 04:12:42;;;;;;;4.60;4.30;;;12.00;99.90;;;;;;4967269;28;20487;-86
2022/09/02 04:15:10;;;;;;;4.57;4.13;;;12.00;99.90;;;;;;4967236;28;20584;-87
2022/09/02 04:17:40;;;;;;;5.40;5.00;;;11.80;99.90;;;;;;4979509;28;20440;-87
2022/09/02 04:20:09;;;;;;;5.30;4.80;;;11.80;99.90;;;;;;4968439;28;20563;-87
2022/09/02 04:22:35;;;;;;;5.03;4.60;;;11.80;99.90;;;;;;4982933;28;20459;-85
2022/09/02 04:25:01;;;;;;;4.87;4.30;;;11.90;99.90;;;;;;4982948;28;20459;-87
2022/09/02 04:27:29;;;;;;;5.07;4.67;;;11.80;99.90;;;;;;4966896;28;20452;-87
2022/09/02 04:29:55;;;;;;;4.67;4.30;;;11.80;99.90;;;;;;4967370;28;20837;-87
2022/09/02 04:32:21;;;;;;;5.03;4.73;;;11.90;99.90;;;;;;4966416;28;20448;-87
2022/09/02 04:34:47;;;;;;;4.70;4.30;;;11.90;99.90;;;;;;4977555;28;20185;-87
2022/09/02 04:37:13;;;;;;;5.67;5.17;;;11.90;99.90;;;;;;4964650;28;20969;-87
2022/09/02 04:39:38;;;;;;;5.77;5.37;;;12.00;99.90;;;;;;4972414;28;20871;-86
2022/09/02 04:42:05;;;;;;;6.13;5.47;;;12.00;99.90;;;;;;4971860;28;20189;-88
2022/09/02 04:44:31;;;;;;;6.10;4.83;;;12.00;99.90;;;;;;4965298;28;20268;-88
2022/09/02 04:46:57;;;;;;;5.10;4.80;;;12.00;99.90;;;;;;4970047;28;20953;-87
2022/09/02 04:49:22;;;;;;;4.60;4.30;;;12.20;99.90;;;;;;4969950;28;20449;-85
2022/09/02 04:51:49;;;;;;;4.57;4.27;;;12.30;99.90;;;;;;4977446;28;20193;-86
2022/09/02 04:54:14;;;;;;;7.63;4.43;;;12.30;99.90;;;;;;4980511;28;20181;-87
2022/09/02 04:56:52;;;;;;;5.20;4.80;;;12.20;99.90;;;;;;4982289;28;20450;-87
2022/09/02 04:59:24;;;;;;;5.53;4.40;;;12.20;99.90;;;;;;4972617;28;20515;-88
2022/09/02 05:01:49;;;;;;;4.83;4.20;;;12.20;99.90;;;;;;4967673;28;20449;-87
2022/09/02 05:04:15;;;;;;;4.53;4.13;;;12.20;99.90;;;;;;4966255;28;20440;-87
2022/09/02 05:06:41;;;;;;;4.50;4.20;;;12.30;99.90;;;;;;4975090;28;20607;-86
2022/09/02 05:09:07;;;;;;;4.67;4.27;;;12.30;99.90;;;;;;4974528;28;20238;-86
2022/09/02 05:11:34;;;;;;;4.60;4.20;;;12.30;99.90;;;;;;4968288;28;20327;-87
2022/09/02 05:14:03;;;;;;;4.97;4.50;;;12.30;99.90;;;;;;4975373;28;20448;-86
2022/09/02 05:16:32;;;;;;;4.90;4.50;;;12.30;99.90;;;;;;4969667;28;20530;-86
2022/09/02 05:18:59;;;;;;;4.93;4.63;;;12.30;99.90;;;;;;4974943;28;20575;-86
2022/09/02 05:21:24;;;;;;;5.10;4.60;;;12.30;99.90;;;;;;4969282;28;20437;-86
2022/09/02 05:23:53;;;;;;;4.10;3.87;;;12.30;99.90;;;;;;4983184;28;20771;-86
2022/09/02 05:26:19;;;;;;;4.60;4.30;;;12.30;99.90;;;;;;4977782;28;20625;-86
2022/09/02 05:28:44;;;;;;;4.53;4.23;;;12.40;99.90;;;;;;4960048;28;20482;-86
2022/09/02 05:31:13;;;;;;;5.30;4.80;;;12.40;99.90;;;;;;4966889;28;20451;-86
2022/09/02 05:33:39;;;;;;;4.60;4.30;;;12.40;99.90;;;;;;4968464;28;20188;-85
2022/09/02 05:36:11;;;;;;;4.53;4.23;;;12.40;99.90;;;;;;4971743;28;20559;-86
2022/09/02 05:38:38;;;;;;;5.23;4.80;;;12.50;99.90;;;;;;4970491;28;20608;-86
2022/09/02 05:41:10;;;;;;;5.00;4.60;;;12.40;99.90;;;;;;4971813;28;20466;-86
2022/09/02 05:43:40;;;;;;;5.30;4.80;;;12.50;99.90;;;;;;4980083;28;20886;-86
2022/09/02 05:46:07;;;;;;;4.57;4.27;;;12.70;99.90;;;;;;4967657;28;22338;-86
2022/09/02 05:51:25;;;;;;;4.50;4.30;;;13.00;99.90;;;;;;4984984;28;20489;-86
2022/09/02 05:53:55;;;;;;;5.00;4.60;;;13.10;99.90;;;;;;4981020;28;20442;-86
2022/09/02 05:56:21;;;;;;;5.00;4.60;;;13.30;99.90;;;;;;4988415;28;20192;-86
2022/09/02 05:58:47;;;;;;;5.57;5.10;;;13.30;99.90;;;;;;4972170;28;20435;-86
2022/09/02 06:01:14;;;;;;;4.60;4.30;;;13.50;99.90;;;;;;4967278;28;20653;-88
2022/09/02 06:03:40;;;;;;;5.00;4.60;;;13.60;99.90;;;;;;4973054;28;20189;-87
2022/09/02 06:06:06;;;;;;;4.73;4.43;;;13.70;99.90;;;;;;4965066;28;20820;-87
2022/09/02 06:08:33;;;;;;;4.80;4.40;;;13.80;99.90;;;;;;4965598;28;20552;-87
2022/09/02 06:11:02;;;;;;;5.10;4.70;;;13.90;99.90;;;;;;4966283;28;20215;-85
2022/09/02 06:13:38;;;;;;;5.33;5.03;;;14.00;99.90;;;;;;4965091;28;20464;-86
2022/09/02 06:16:05;;;;;;;5.83;5.27;;;14.10;99.90;;;;;;4968372;28;20522;-85
2022/09/02 06:18:31;;;;;;;4.63;4.33;;;14.20;99.90;;;;;;4971877;28;20749;-86
2022/09/02 06:20:56;;;;;;;5.00;4.63;;;14.30;99.90;;;;;;4971729;28;20490;-86
2022/09/02 06:23:22;;;;;;;5.73;5.20;;;14.30;99.90;;;;;;4976018;28;20540;-86
2022/09/02 06:25:48;;;;;;;6.03;5.63;;;14.30;99.90;;;;;;4986169;28;20804;-85
2022/09/02 06:28:15;;;;;;;4.70;4.40;;;14.40;99.90;;;;;;4982072;28;20196;-85
2022/09/02 06:30:43;;;;;;;4.97;4.67;;;14.40;99.90;;;;;;4966903;28;20474;-85
2022/09/02 06:33:10;;;;;;;5.57;5.07;;;14.50;99.90;;;;;;4969068;28;20581;-83
2022/09/02 06:35:40;;;;;;;5.80;5.40;;;14.60;99.90;;;;;;4986501;28;20451;-88
2022/09/02 06:38:10;;;;;;;5.10;4.50;;;14.70;99.90;;;;;;4992972;28;20437;-85
2022/09/02 06:40:51;;;;;;;4.90;4.60;;;14.80;99.90;;;;;;5006670;28;20442;-85
2022/09/02 06:43:27;;;;;;;6.17;5.33;;;15.00;99.90;;;;;;4987505;28;20444;-86
2022/09/02 06:45:54;;;;;;;5.10;4.70;;;15.10;99.90;;;;;;4972279;28;20447;-85
2022/09/02 06:48:20;;;;;;;5.53;5.13;;;15.20;99.90;;;;;;4968917;28;20472;-87
2022/09/02 06:51:24;;;;;;;5.27;4.87;;;15.30;99.90;;;;;;4972953;28;20571;-88
2022/09/02 06:53:50;;;;;;;6.30;5.70;;;15.30;99.90;;;;;;4999440;28;20207;-87
2022/09/02 06:56:16;;;;;;;6.20;5.60;;;15.40;99.90;;;;;;4994788;28;20944;-88
2022/09/02 06:58:42;;;;;;;5.60;5.17;;;15.40;99.90;;;;;;4980958;28;20188;-84
2022/09/02 07:01:07;;;;;;;5.73;5.17;;;15.50;99.90;;;;;;4968698;28;20443;-84
2022/09/02 07:06:17;;;;;;;5.33;4.60;;;15.60;99.90;;;;;;4988271;28;20666;-84
2022/09/02 07:08:44;;;;;;;5.70;5.23;;;15.80;99.90;;;;;;4964010;28;20487;-83
2022/09/02 07:11:19;;;;;;;5.03;4.70;;;16.00;99.90;;;;;;4968687;28;20304;-83
2022/09/02 07:13:45;;;;;;;5.30;4.90;;;16.00;99.90;;;;;;4971993;28;20832;-82
2022/09/02 07:16:12;;;;;;;5.10;4.80;;;16.10;99.90;;;;;;4974271;28;20548;-85
2022/09/02 07:18:39;;;;;;;7.93;5.30;;;16.10;99.90;;;;;;4972419;28;20518;-83
2022/09/02 07:21:08;;;;;;;5.57;5.10;;;16.10;99.90;;;;;;4976941;28;20459;-84
2022/09/02 07:23:33;;;;;;;5.77;5.20;;;16.20;99.90;;;;;;4985556;28;20467;-85
2022/09/02 07:25:59;;;;;;;5.10;4.70;;;16.20;99.90;;;;;;4981410;28;21041;-85
2022/09/02 07:28:25;;;;;;;5.67;5.27;;;16.30;99.90;;;;;;4988852;28;20760;-85
2022/09/02 07:30:53;;;;;;;5.27;4.97;;;16.40;99.90;;;;;;4970704;28;20319;-85
2022/09/02 07:33:19;;;;;;;5.10;4.70;;;16.60;99.90;;;;;;4966188;28;20444;-86
2022/09/02 07:35:44;;;;;;;5.47;5.07;;;16.70;99.90;;;;;;4967014;28;20518;-85
2022/09/02 07:38:10;;;;;;;6.00;4.80;;;16.70;99.90;;;;;;4971309;28;20449;-84
2022/09/02 07:40:39;;;;;;;4.70;4.30;;;16.80;99.90;;;;;;4964233;28;20193;-86
2022/09/02 07:43:06;;;;;;;4.80;4.50;;;17.00;99.90;;;;;;4980119;28;20441;-88
2022/09/02 07:45:33;;;;;;;5.73;5.23;;;17.00;99.90;;;;;;4995515;28;20490;-88
2022/09/02 07:47:59;;;;;;;6.53;4.97;;;17.00;99.90;;;;;;4990721;28;21015;-87
2022/09/02 07:50:26;;;;;;;5.37;4.87;;;17.20;99.90;;;;;;4961387;28;21204;-88
2022/09/02 07:52:56;;;;;;;4.07;3.73;;;17.20;99.90;;;;;;4979073;28;20191;-87
2022/09/02 07:55:23;;;;;;;4.33;4.07;;;17.20;99.90;;;;;;4972029;28;20453;-87
2022/09/02 07:57:50;;;;;;;3.73;3.53;;;17.20;99.90;;;;;;4980940;28;20446;-87
2022/09/02 08:00:18;;;;;;;4.77;4.37;;;17.30;99.90;;;;;;4966584;28;20535;-87
2022/09/02 08:02:44;;;;;;;4.60;4.20;;;17.40;99.90;;;;;;4983585;28;20522;-87
2022/09/02 08:05:11;;;;;;;5.90;4.00;;;17.50;99.90;;;;;;4966943;28;20459;-88
2022/09/02 08:07:36;;;;;;;4.67;4.30;;;17.50;99.90;;;;;;4973686;28;20779;-88
2022/09/02 08:10:03;;;;;;;4.40;4.00;;;17.60;99.90;;;;;;4962901;28;20485;-87
2022/09/02 08:13:05;;;;;;;4.40;4.03;;;17.80;99.90;;;;;;4976605;28;20200;-88
2022/09/02 08:15:31;;;;;;;3.80;3.60;;;17.90;99.90;;;;;;4989012;28;20540;-87
2022/09/02 08:17:59;;;;;;;3.80;3.60;;;18.00;99.90;;;;;;4974451;28;20471;-88
2022/09/02 08:20:25;;;;;;;5.53;4.10;;;18.10;99.90;;;;;;4991778;28;20863;-87
2022/09/02 08:22:50;;;;;;;4.03;3.73;;;18.30;99.90;;;;;;4990587;28;20461;-87
2022/09/02 08:25:19;;;;;;;4.00;3.70;;;18.40;99.90;;;;;;4986641;28;20335;-87
2022/09/02 08:27:45;;;;;;;3.57;3.30;;;18.40;99.90;;;;;;5003049;28;20235;-88
2022/09/02 08:30:11;;;;;;;3.87;3.60;;;18.60;99.90;;;;;;4977674;28;20551;-88
2022/09/02 08:32:38;;;;;;;4.73;3.40;;;18.60;99.90;;;;;;4970876;28;20625;-87
2022/09/02 08:35:06;;;;;;;3.90;3.60;;;18.60;99.90;;;;;;4972085;28;20439;-88
2022/09/02 08:37:32;;;;;;;4.23;3.50;;;18.80;99.90;;;;;;4975547;28;20953;-87
2022/09/02 08:39:58;;;;;;;3.87;3.47;;;18.90;99.90;;;;;;4975281;28;20440;-88
2022/09/02 08:42:31;;;;;;;3.23;3.03;;;19.00;99.90;;;;;;4969661;28;20582;-88
2022/09/02 08:45:05;;;;;;;2.90;2.70;;;19.10;99.90;;;;;;4969479;28;20436;-88
2022/09/02 08:47:34;;;;;;;3.37;3.17;;;19.10;99.90;;;;;;4972154;28;20447;-88
2022/09/02 08:50:08;;;;;;;2.90;2.70;;;19.30;99.90;;;;;;4972376;28;20472;-88
2022/09/02 08:52:47;;;;;;;3.10;2.90;;;19.40;99.90;;;;;;4991445;28;20530;-87
2022/09/02 08:55:24;;;;;;;4.40;2.80;;;19.60;99.90;;;;;;4988172;28;20489;-88
2022/09/02 08:57:50;;;;;;;3.50;3.20;;;19.70;99.90;;;;;;4986796;28;20538;-87
2022/09/02 09:00:16;;;;;;;4.50;3.00;;;19.90;99.90;;;;;;4984418;28;20453;-88
2022/09/02 09:02:52;;;;;;;6.43;2.90;;;19.90;99.90;;;;;;4973802;28;20650;-87
2022/09/02 09:05:43;;;;;;;3.07;2.70;;;19.90;99.90;;;;;;4974806;28;20448;-86
2022/09/02 09:08:33;;;;;;;4.97;2.90;;;20.10;99.90;;;;;;4987721;28;20436;-87
2022/09/02 09:11:02;;;;;;;2.80;2.60;;;20.20;99.90;;;;;;4987245;28;20479;-87
2022/09/02 09:13:53;;;;;;;4.60;2.30;;;20.30;99.90;;;;;;4987838;28;20856;-87
2022/09/02 09:16:40;;;;;;;2.80;2.23;;;20.30;99.90;;;;;;4994775;28;20475;-87
2022/09/02 09:19:11;;;;;;;3.00;2.70;;;20.60;98.90;;;;;;4996258;28;20809;-87
2022/09/02 09:21:39;;;;;;;4.13;2.33;;;20.70;98.50;;;;;;4982476;28;20436;-87
2022/09/02 09:24:29;;;;;;;2.70;2.50;;;20.60;96.20;;;;;;4992235;28;20443;-88
2022/09/02 09:26:55;;;;;;;2.17;2.07;;;20.60;97.20;;;;;;4983389;28;20439;-87
2022/09/02 09:29:21;;;;;;;3.67;2.30;;;20.90;94.80;;;;;;4984585;28;20440;-87
2022/09/02 09:31:54;;;;;;;1.97;1.87;;;21.00;95.60;;;;;;4981957;28;20503;-86
2022/09/02 09:34:20;;;;;;;2.30;2.10;;;21.00;95.30;;;;;;4983466;28;20428;-88
2022/09/02 09:36:50;;;;;;;1.97;1.87;;;21.10;93.90;;;;;;4987766;28;20574;-87
2022/09/02 09:39:25;;;;;;;1.90;1.80;;;21.50;93.70;;;;;;4978364;28;20604;-88
2022/09/02 09:42:34;;;;;;;3.50;1.80;;;21.70;94.80;;;;;;4986018;28;20562;-88
2022/09/02 09:45:27;;;;;;;1.97;1.70;;;22.00;93.00;;;;;;4991587;28;20792;-88
2022/09/02 09:48:09;;;;;;;1.80;1.70;;;22.00;92.80;;;;;;4986493;28;20965;-88
2022/09/02 09:50:35;;;;;;;2.00;1.90;;;22.00;92.30;;;;;;4971499;28;20483;-88
2022/09/02 09:53:16;;;;;;;2.20;1.83;;;22.10;93.10;;;;;;4955265;28;20970;-89
2022/09/02 09:56:04;;;;;;;1.93;1.77;;;22.30;92.40;;;;;;4987756;28;20180;-88
2022/09/02 09:58:43;;;;;;;2.43;2.00;;;22.00;91.20;;;;;;5001252;28;20439;-88
2022/09/02 10:01:28;;;;;;;2.40;1.90;;;22.10;91.90;;;;;;4970445;28;20444;-88
2022/09/02 10:03:59;;;;;;;2.13;1.53;;;22.20;91.20;;;;;;4968801;28;20447;-88
2022/09/02 10:06:31;;;;;;;1.57;1.47;;;22.10;92.10;;;;;;4973551;28;20451;-88
2022/09/02 10:08:59;;;;;;;1.80;1.70;;;22.10;89.10;;;;;;4970616;28;20548;-88
2022/09/02 10:11:30;;;;;;;2.10;1.80;;;22.20;90.60;;;;;;4979378;28;20483;-88
2022/09/02 10:14:10;;;;;;;2.30;2.00;;;22.30;89.80;;;;;;4972574;28;20431;-88
2022/09/02 10:17:15;;;;;;;2.23;2.03;;;22.30;89.80;;;;;;4984279;28;21928;-87
2022/09/02 10:20:11;;;;;;;1.80;1.70;;;22.50;90.60;;;;;;4979885;28;20456;-88
2022/09/02 10:23:13;;;;;;;1.80;1.70;;;22.70;90.20;;;;;;4969485;28;20451;-88
2022/09/02 10:26:26;;;;;;;2.30;1.83;;;22.80;89.80;;;;;;4996114;28;21056;-89
2022/09/02 10:29:22;;;;;;;2.30;2.10;;;22.90;85.90;;;;;;4998123;28;20570;-88
2022/09/02 10:32:09;;;;;;;2.17;1.80;;;22.80;87.60;;;;;;4981345;28;21049;-88
2022/09/02 10:34:56;;;;;;;1.73;1.60;;;22.80;86.40;;;;;;4991823;28;20447;-88
2022/09/02 10:37:24;;;;;;;2.10;2.00;;;22.80;85.50;;;;;;4981769;28;20480;-88
2022/09/02 10:40:30;;;;;;;2.13;1.50;;;22.90;87.10;;;;;;4967070;28;20437;-88
2022/09/02 10:43:05;;;;;;;2.03;1.93;;;23.10;86.50;;;;;;4932450;28;20580;-89
2022/09/02 10:45:49;;;;;;;1.57;1.53;;;23.20;82.60;;;;;;4933038;28;20497;-88
2022/09/02 10:48:52;;;;;;;1.80;1.70;;;23.10;84.70;;;;;;4934707;28;22276;-89
2022/09/02 10:51:32;;;;;;;2.17;1.83;;;23.30;85.60;;;;;;4955332;28;20476;-88
2022/09/02 10:54:43;;;;;;;1.97;1.80;;;23.50;86.90;;;;;;4983417;28;20808;-89
2022/09/02 10:57:21;;;;;;;2.70;1.90;;;23.40;85.60;;;;;;4952199;28;20440;-88
2022/09/02 11:00:15;;;;;;;1.70;1.60;;;23.40;84.80;;;;;;4990231;28;20531;-88
2022/09/02 11:03:12;;;;;;;2.00;1.90;;;23.70;85.50;;;;;;4971977;28;20898;-88
2022/09/02 11:05:50;;;;;;;3.10;1.60;;;23.70;86.90;;;;;;4990019;28;20427;-88
2022/09/02 11:08:27;;;;;;;2.23;2.00;;;23.60;84.70;;;;;;4984078;28;20440;-87
2022/09/02 11:11:20;;;;;;;2.20;2.10;;;24.00;85.90;;;;;;4979414;28;20493;-88
2022/09/02 11:13:57;;;;;;;4.40;2.23;;;23.70;81.60;;;;;;4969674;28;20442;-87
2022/09/02 11:16:51;;;;;;;3.60;2.03;;;24.00;80.30;;;;;;4964298;28;20555;-89
2022/09/02 11:19:28;;;;;;;3.00;1.70;;;24.20;87.30;;;;;;4951432;28;20440;-86
2022/09/02 11:22:02;;;;;;;2.20;2.10;;;24.20;85.10;;;;;;4981142;28;20529;-87
2022/09/02 11:25:08;;;;;;;1.87;1.77;;;24.40;83.60;;;;;;4981229;28;20461;-85
2022/09/02 11:27:53;;;;;;;2.30;2.10;;;24.30;84.40;;;;;;4976662;28;20443;-88
2022/09/02 11:30:24;;;;;;;2.40;2.30;;;24.40;79.50;;;;;;4975779;28;20511;-85
2022/09/02 11:33:27;;;;;;;2.30;2.20;;;24.60;82.10;;;;;;4971806;28;20454;-88
2022/09/02 11:35:53;;;;;;;2.17;2.00;;;24.60;81.90;;;;;;4966394;28;20439;-89
2022/09/02 11:38:33;;;;;;;2.10;2.00;;;25.00;79.10;;;;;;4959590;28;20532;-89
2022/09/02 11:41:31;;;;;;;2.70;2.50;;;25.20;79.20;;;;;;4974331;28;20249;-88
2022/09/02 11:44:35;;;;;;;2.20;2.00;;;25.00;77.80;;;;;;4983895;28;21175;-89
2022/09/02 11:47:08;;;;;;;3.00;2.70;;;24.70;82.30;;;;;;4972686;28;20458;-88
2022/09/02 11:50:05;;;;;;;2.33;2.10;;;24.80;80.50;;;;;;4983891;28;20438;-88
2022/09/02 11:52:38;;;;;;;2.40;2.20;;;24.80;80.80;;;;;;4974747;28;20447;-88
2022/09/02 11:55:16;;;;;;;2.70;2.50;;;24.90;78.40;;;;;;4974496;28;20864;-88
2022/09/02 11:57:42;;;;;;;2.17;2.03;;;25.30;78.10;;;;;;4984800;28;20451;-88
2022/09/02 12:00:29;;;;;;;2.50;2.40;;;25.00;79.40;;;;;;4978257;28;20441;-88
2022/09/02 12:03:04;;;;;;;3.33;2.47;;;25.00;77.50;;;;;;4955662;28;20495;-88
2022/09/02 12:05:30;;;;;;;2.63;2.33;;;25.00;82.10;;;;;;4967920;28;20447;-88
2022/09/02 12:08:03;;;;;;;2.03;1.93;;;25.10;79.00;;;;;;4970484;28;20447;-88
2022/09/02 12:10:47;;;;;;;1.90;1.80;;;24.80;75.40;;;;;;4969842;28;20229;-88
2022/09/02 12:13:47;;;;;;;2.23;2.10;;;24.80;78.00;;;;;;4968874;28;20450;-88
2022/09/02 12:16:18;;;;;;;2.50;2.30;;;24.90;82.00;;;;;;4966139;28;20498;-88
2022/09/02 12:18:59;;;;;;;2.33;2.20;;;25.30;84.20;;;;;;4970524;28;20440;-89
2022/09/02 12:21:26;;;;;;;2.20;2.10;;;25.20;81.90;;;;;;4985232;28;20447;-89
2022/09/02 12:23:55;;;;;;;2.57;2.37;;;25.40;75.50;;;;;;4973523;28;20800;-90
2022/09/02 12:26:39;;;;;;;3.00;2.07;;;25.40;78.40;;;;;;4982254;28;20613;-89
2022/09/02 12:29:32;;;;;;;2.63;2.43;;;25.20;74.10;;;;;;4979876;28;20435;-91
2022/09/02 12:31:58;;;;;;;2.90;2.70;;;25.00;81.70;;;;;;4972724;28;20452;-89
2022/09/02 12:34:29;;;;;;;2.43;2.33;;;25.10;81.00;;;;;;4971913;28;20439;-91
2022/09/02 12:37:00;;;;;;;2.60;2.50;;;25.30;83.70;;;;;;4978210;28;20239;-90
2022/09/02 12:39:31;;;;;;;2.80;2.60;;;25.40;75.30;;;;;;4966339;28;20839;-91
2022/09/02 12:42:06;;;;;;;2.80;2.60;;;25.30;79.10;;;;;;4973199;28;21001;-90
2022/09/02 12:44:56;;;;;;;2.50;2.40;;;25.20;78.90;;;;;;4982907;28;20446;-90
2022/09/02 12:47:53;;;;;;;2.20;2.10;;;25.40;79.50;;;;;;4970941;28;20444;-91
2022/09/02 12:50:28;;;;;;;2.33;2.13;;;25.50;75.90;;;;;;4974478;28;20478;-89
2022/09/02 12:53:19;;;;;;;2.10;2.00;;;25.70;76.30;;;;;;4974357;28;20933;-87
2022/09/02 12:56:03;;;;;;;2.60;2.40;;;25.50;82.80;;;;;;4967570;28;20452;-88
2022/09/02 12:58:41;;;;;;;2.60;2.40;;;25.80;76.10;;;;;;4978756;28;20537;-89
2022/09/02 13:01:38;;;;;;;2.57;2.47;;;26.00;81.10;;;;;;4977602;28;20447;-90
2022/09/02 13:04:26;;;;;;;2.60;2.40;;;25.80;77.50;;;;;;4976553;28;20444;-87
2022/09/02 13:07:04;;;;;;;2.97;2.67;;;25.60;80.60;;;;;;4961823;28;20478;-89
2022/09/02 13:09:56;;;;;;;2.50;2.27;;;25.80;79.40;;;;;;4974063;28;20555;-88
2022/09/02 13:12:49;;;;;;;2.50;2.37;;;26.00;77.90;;;;;;4982320;28;20555;-89
2022/09/02 13:15:42;;;;;;;2.67;2.47;;;25.80;77.30;;;;;;4966888;28;20446;-89
2022/09/02 13:18:26;;;;;;;3.80;2.60;;;26.10;78.30;;;;;;4980982;28;20757;-88
2022/09/02 13:21:21;;;;;;;3.47;2.40;;;26.20;79.10;;;;;;4981928;28;20808;-89